Time;durP1;ratioP1;P1;durP2;ratioP2;P2;SDS_P1;SDS_P2;PMS_P1;PMS_P2;Temp;Humidity;BMP_temperature;BMP_pressure;BME280_temperature;BME280_humidity;BME280_pressure;Samples;Min_cycle;Max_cycle;Signal;HPM_P1;HPM_P2
2022/04/11 00:00:35;;;;;;;7.47;4.50;;;2.10;99.90;;;;;;5021844;28;20054;-74
2022/04/11 00:03:01;;;;;;;7.80;3.70;;;2.00;99.90;;;;;;5007241;28;20075;-74
2022/04/11 00:05:27;;;;;;;6.40;3.63;;;1.90;99.90;;;;;;4991366;28;20575;-74
2022/04/11 00:07:53;;;;;;;5.77;3.87;;;1.80;99.90;;;;;;4958997;28;20839;-73
2022/04/11 00:10:18;;;;;;;5.17;3.00;;;1.70;99.90;;;;;;4991646;28;20055;-74
2022/04/11 00:12:44;;;;;;;5.97;3.83;;;1.70;99.90;;;;;;4987369;28;20088;-73
2022/04/11 00:15:10;;;;;;;5.80;3.23;;;1.70;99.90;;;;;;5002786;28;20435;-74
2022/04/11 00:17:36;;;;;;;5.67;3.57;;;1.80;99.90;;;;;;5002934;28;20704;-74
2022/04/11 00:20:05;;;;;;;6.33;3.27;;;1.80;99.90;;;;;;5009319;28;20153;-74
2022/04/11 00:22:37;;;;;;;4.80;2.80;;;1.80;99.90;;;;;;5008104;28;20052;-74
2022/04/11 00:25:04;;;;;;;7.07;3.50;;;1.80;99.90;;;;;;4987482;28;20516;-74
2022/04/11 00:27:30;;;;;;;5.60;3.13;;;1.80;99.90;;;;;;4972402;28;20743;-74
2022/04/11 00:29:56;;;;;;;5.33;3.50;;;1.90;99.90;;;;;;4971450;28;20058;-74
2022/04/11 00:32:22;;;;;;;6.33;3.30;;;1.80;99.90;;;;;;4985270;28;20120;-74
2022/04/11 00:34:48;;;;;;;5.40;3.50;;;1.80;99.90;;;;;;4989746;28;20496;-73
2022/04/11 00:37:14;;;;;;;7.33;4.10;;;1.80;99.90;;;;;;4974922;28;20096;-73
2022/04/11 00:39:39;;;;;;;5.67;3.87;;;1.80;99.90;;;;;;4974654;28;20041;-73
2022/04/11 00:42:13;;;;;;;6.63;4.20;;;1.70;99.90;;;;;;4991125;28;20092;-74
2022/04/11 00:44:39;;;;;;;7.17;4.90;;;1.70;99.90;;;;;;4974758;28;20567;-74
2022/04/11 00:47:05;;;;;;;9.23;5.80;;;1.60;99.90;;;;;;5008131;28;20049;-73
2022/04/11 00:49:31;;;;;;;8.50;5.63;;;1.50;99.90;;;;;;4991422;28;20530;-73
2022/04/11 00:51:57;;;;;;;8.00;5.87;;;1.40;99.90;;;;;;4988892;28;20057;-73
2022/04/11 00:54:27;;;;;;;7.70;5.63;;;1.40;99.90;;;;;;4975249;28;20045;-73
2022/04/11 00:56:54;;;;;;;7.38;6.15;;;1.40;99.90;;;;;;5006467;28;20053;-73
2022/04/11 00:59:20;;;;;;;8.30;5.50;;;1.30;99.90;;;;;;5007586;28;20444;-74
2022/04/11 01:01:47;;;;;;;10.20;5.90;;;1.30;99.90;;;;;;5004894;28;20051;-74
2022/04/11 01:04:23;;;;;;;8.17;5.30;;;1.20;99.90;;;;;;5006552;28;20038;-74
2022/04/11 01:06:50;;;;;;;8.67;5.67;;;1.20;99.90;;;;;;4994768;28;20136;-74
2022/04/11 01:09:16;;;;;;;9.13;5.97;;;1.20;99.90;;;;;;5011319;28;20038;-73
2022/04/11 01:11:42;;;;;;;9.53;5.33;;;1.20;99.90;;;;;;4978055;28;20049;-74
2022/04/11 01:14:08;;;;;;;9.27;5.10;;;1.30;99.90;;;;;;5010485;28;20041;-73
2022/04/11 01:16:34;;;;;;;7.23;5.00;;;1.20;99.90;;;;;;4979017;28;20772;-72
2022/04/11 01:18:59;;;;;;;6.90;5.13;;;1.20;99.90;;;;;;4983056;28;20143;-73
2022/04/11 01:21:30;;;;;;;7.03;5.00;;;1.30;99.90;;;;;;5030864;28;20107;-73
2022/04/11 01:23:57;;;;;;;8.13;4.87;;;1.30;99.90;;;;;;5013544;28;20061;-73
2022/04/11 01:26:24;;;;;;;7.87;5.30;;;1.30;99.90;;;;;;5008186;28;20049;-73
2022/04/11 01:28:50;;;;;;;7.40;5.00;;;1.30;99.90;;;;;;4974575;28;20034;-73
2022/04/11 01:31:16;;;;;;;7.60;5.27;;;1.20;99.90;;;;;;4992168;28;20049;-74
2022/04/11 01:33:45;;;;;;;8.23;5.57;;;1.30;99.90;;;;;;4991671;28;20041;-73
2022/04/11 01:36:10;;;;;;;6.27;4.50;;;1.30;99.90;;;;;;4986924;28;20574;-73
2022/04/11 01:38:36;;;;;;;6.47;4.60;;;1.40;99.90;;;;;;5019094;28;20049;-73
2022/04/11 01:41:05;;;;;;;6.73;4.90;;;1.30;99.90;;;;;;4965185;28;20049;-73
2022/04/11 01:43:31;;;;;;;7.37;4.50;;;1.30;99.90;;;;;;4992121;28;20132;-73
2022/04/11 01:45:56;;;;;;;6.00;4.50;;;1.30;99.90;;;;;;4995179;28;21011;-73
2022/04/11 01:48:22;;;;;;;7.00;4.53;;;1.30;99.90;;;;;;5005865;28;20672;-74
2022/04/11 01:50:48;;;;;;;6.63;4.67;;;1.20;99.90;;;;;;5009011;28;20072;-74
2022/04/11 01:53:17;;;;;;;7.63;4.63;;;1.30;99.90;;;;;;5000689;28;20038;-74
2022/04/11 01:55:43;;;;;;;7.53;5.07;;;1.30;99.90;;;;;;5002103;28;20087;-74
2022/04/11 01:58:10;;;;;;;8.13;5.17;;;1.30;99.90;;;;;;4989858;28;20053;-74
2022/04/11 02:00:37;;;;;;;8.77;4.77;;;1.30;99.90;;;;;;4989038;28;20542;-74
2022/04/11 02:03:05;;;;;;;6.37;4.10;;;1.30;99.90;;;;;;4972439;28;20646;-74
2022/04/11 02:05:32;;;;;;;7.10;4.93;;;1.30;99.90;;;;;;4989597;28;20122;-74
2022/04/11 02:07:58;;;;;;;9.17;4.50;;;1.30;99.90;;;;;;4988437;28;20049;-73
2022/04/11 02:10:25;;;;;;;7.23;4.63;;;1.20;99.90;;;;;;4981272;28;20097;-73
2022/04/11 02:12:52;;;;;;;6.80;4.77;;;1.30;99.90;;;;;;4988041;28;20504;-73
2022/04/11 02:15:18;;;;;;;6.30;4.63;;;1.20;99.90;;;;;;4972398;28;20655;-74
2022/04/11 02:17:49;;;;;;;7.83;4.97;;;1.10;99.90;;;;;;4988848;28;20100;-73
2022/04/11 02:20:16;;;;;;;6.93;4.93;;;1.20;99.90;;;;;;4988578;28;20045;-74
2022/04/11 02:23:05;;;;;;;7.23;5.27;;;1.10;99.90;;;;;;4989936;28;20058;-74
2022/04/11 02:25:36;;;;;;;6.53;4.70;;;1.10;99.90;;;;;;4998956;28;20069;-74
2022/04/11 02:28:02;;;;;;;7.33;4.80;;;1.10;99.90;;;;;;4972686;28;20455;-74
2022/04/11 02:30:28;;;;;;;5.90;4.53;;;1.10;99.90;;;;;;4990102;28;20049;-74
2022/04/11 02:32:55;;;;;;;7.17;4.60;;;1.00;99.90;;;;;;4990595;28;20148;-74
2022/04/11 02:35:21;;;;;;;7.93;5.17;;;1.00;99.90;;;;;;4999476;28;20033;-74
2022/04/11 02:37:47;;;;;;;8.40;4.60;;;1.00;99.90;;;;;;4990506;28;20034;-74
2022/04/11 02:40:13;;;;;;;8.80;5.03;;;1.00;99.90;;;;;;4957815;28;20053;-74
2022/04/11 02:42:44;;;;;;;9.57;5.07;;;1.10;99.90;;;;;;4989338;28;20042;-74
2022/04/11 02:45:15;;;;;;;5.05;4.22;;;1.00;99.90;;;;;;4972892;28;20045;-74
2022/04/11 02:47:40;;;;;;;6.57;4.67;;;1.00;99.90;;;;;;4988568;28;20085;-74
2022/04/11 02:50:07;;;;;;;6.87;4.97;;;1.00;99.90;;;;;;4988462;28;20077;-73
2022/04/11 02:52:33;;;;;;;8.43;4.97;;;1.00;99.90;;;;;;4985692;28;20046;-74
2022/04/11 02:54:59;;;;;;;6.57;4.50;;;1.00;99.90;;;;;;4985793;28;20140;-74
2022/04/11 02:57:25;;;;;;;6.87;4.83;;;1.20;99.90;;;;;;4988514;28;20508;-73
2022/04/11 02:59:51;;;;;;;8.40;4.97;;;1.00;99.90;;;;;;4991797;28;20100;-73
2022/04/11 03:02:18;;;;;;;8.23;4.83;;;1.00;99.90;;;;;;4974415;28;20034;-73
2022/04/11 03:04:44;;;;;;;6.90;4.67;;;1.00;99.90;;;;;;5002234;28;20048;-73
2022/04/11 03:07:09;;;;;;;8.50;4.60;;;1.00;99.90;;;;;;4981587;28;20042;-73
2022/04/11 03:09:36;;;;;;;7.80;4.70;;;1.00;99.90;;;;;;4982978;28;20423;-73
2022/04/11 03:12:05;;;;;;;5.80;4.10;;;1.00;99.90;;;;;;4998215;28;20389;-74
2022/04/11 03:14:31;;;;;;;5.87;4.10;;;1.00;99.90;;;;;;5002615;28;20052;-73
2022/04/11 03:16:57;;;;;;;7.63;4.80;;;1.00;99.90;;;;;;4979212;28;20050;-73
2022/04/11 03:19:22;;;;;;;6.30;4.77;;;1.00;99.90;;;;;;4959249;28;20489;-74
2022/04/11 03:21:49;;;;;;;6.97;4.57;;;1.00;99.90;;;;;;4960860;28;20096;-73
2022/04/11 03:24:15;;;;;;;7.83;4.70;;;1.00;99.90;;;;;;4975211;28;20169;-73
2022/04/11 03:26:41;;;;;;;7.97;4.43;;;1.00;99.90;;;;;;4999134;28;20051;-73
2022/04/11 03:29:06;;;;;;;7.57;4.03;;;1.00;99.90;;;;;;4963025;28;20080;-73
2022/04/11 03:31:36;;;;;;;6.07;3.70;;;1.10;99.90;;;;;;4984890;28;20120;-74
2022/04/11 03:34:01;;;;;;;6.30;3.97;;;1.10;99.90;;;;;;4964238;28;20046;-73
2022/04/11 03:36:27;;;;;;;6.00;3.40;;;1.10;99.90;;;;;;4979527;28;20046;-73
2022/04/11 03:38:53;;;;;;;6.03;3.90;;;1.00;99.90;;;;;;4964734;28;20061;-74
2022/04/11 03:41:19;;;;;;;4.80;3.63;;;1.00;99.90;;;;;;4985999;28;20053;-73
2022/04/11 03:43:44;;;;;;;4.73;3.70;;;1.00;99.90;;;;;;4978399;28;20504;-73
2022/04/11 03:46:10;;;;;;;6.63;4.30;;;1.10;99.90;;;;;;4985444;28;20139;-74
2022/04/11 03:48:36;;;;;;;6.37;4.70;;;1.10;99.90;;;;;;4999999;28;20133;-73
2022/04/11 03:51:02;;;;;;;9.30;4.67;;;1.10;99.90;;;;;;4997971;28;20064;-73
2022/04/11 03:53:28;;;;;;;7.33;5.20;;;1.10;99.90;;;;;;5001425;28;20049;-73
2022/04/11 03:55:54;;;;;;;6.37;4.47;;;1.20;99.90;;;;;;4980102;28;20120;-73
2022/04/11 03:58:20;;;;;;;6.97;4.13;;;1.20;99.90;;;;;;4970906;28;20493;-74
2022/04/11 04:00:46;;;;;;;6.23;4.60;;;1.20;99.90;;;;;;4995229;28;20045;-74
2022/04/11 04:03:12;;;;;;;5.67;4.10;;;1.20;99.90;;;;;;5027420;28;20048;-73
2022/04/11 04:05:46;;;;;;;8.00;4.73;;;1.30;99.90;;;;;;5010717;28;20084;-73
2022/04/11 04:08:13;;;;;;;5.80;4.07;;;1.20;99.90;;;;;;5006991;28;20049;-74
2022/04/11 04:10:43;;;;;;;6.70;4.43;;;1.30;99.90;;;;;;5007902;28;20053;-74
2022/04/11 04:13:09;;;;;;;8.20;4.53;;;1.30;99.90;;;;;;4991039;28;20490;-73
2022/04/11 04:15:36;;;;;;;6.00;4.20;;;1.30;99.90;;;;;;5007993;28;20081;-73
2022/04/11 04:18:05;;;;;;;8.47;4.50;;;1.30;99.90;;;;;;5008342;28;20061;-73
2022/04/11 04:20:30;;;;;;;7.13;3.73;;;1.30;99.90;;;;;;4991699;28;20692;-73
2022/04/11 04:22:56;;;;;;;6.70;4.20;;;1.30;99.90;;;;;;4991295;28;20041;-73
2022/04/11 04:25:23;;;;;;;4.47;3.60;;;1.30;99.90;;;;;;4991109;28;20057;-73
2022/04/11 04:27:49;;;;;;;6.73;4.03;;;1.30;99.90;;;;;;5008599;28;20076;-73
2022/04/11 04:30:15;;;;;;;6.23;3.63;;;1.30;99.90;;;;;;4991994;28;20056;-74
2022/04/11 04:32:42;;;;;;;6.00;3.93;;;1.40;99.90;;;;;;4991616;28;20644;-74
2022/04/11 04:35:09;;;;;;;6.33;4.20;;;1.30;99.90;;;;;;4991137;28;20129;-73
2022/04/11 04:37:35;;;;;;;6.03;3.90;;;1.30;99.90;;;;;;4991801;28;20041;-74
2022/04/11 04:40:01;;;;;;;8.00;3.80;;;1.30;99.90;;;;;;4993524;28;20620;-74
2022/04/11 04:42:27;;;;;;;5.33;3.50;;;1.40;99.90;;;;;;4994964;28;20046;-73
2022/04/11 04:44:53;;;;;;;5.77;3.90;;;1.40;99.90;;;;;;5005745;28;20052;-73
2022/04/11 04:47:19;;;;;;;6.50;4.03;;;1.40;99.90;;;;;;4995816;28;20411;-73
2022/04/11 04:49:45;;;;;;;6.40;3.73;;;1.40;99.90;;;;;;4995224;28;20148;-74
2022/04/11 04:52:12;;;;;;;6.47;3.93;;;1.50;99.90;;;;;;4994467;28;20109;-74
2022/04/11 04:54:38;;;;;;;5.63;3.73;;;1.50;99.90;;;;;;5011381;28;20124;-73
2022/04/11 04:57:04;;;;;;;6.40;4.00;;;1.50;99.90;;;;;;4994906;28;20589;-73
2022/04/11 04:59:30;;;;;;;7.73;4.70;;;1.50;99.90;;;;;;4995465;28;20481;-73
2022/04/11 05:01:56;;;;;;;7.10;4.47;;;1.60;99.90;;;;;;4975074;28;20771;-74
2022/04/11 05:04:22;;;;;;;6.50;4.63;;;1.60;99.90;;;;;;4973931;28;20153;-73
2022/04/11 05:06:48;;;;;;;7.93;4.47;;;1.60;99.90;;;;;;4992803;28;20106;-73
2022/04/11 05:09:14;;;;;;;7.03;3.90;;;1.70;99.90;;;;;;4962281;28;20034;-74
2022/04/11 05:11:40;;;;;;;6.07;4.27;;;1.70;99.90;;;;;;4986341;28;20049;-73
2022/04/11 05:14:06;;;;;;;5.90;3.90;;;1.70;99.90;;;;;;4971437;28;20136;-73
2022/04/11 05:16:32;;;;;;;6.57;4.23;;;1.70;99.90;;;;;;4980862;28;20038;-73
2022/04/11 05:18:58;;;;;;;6.63;4.07;;;1.80;99.90;;;;;;4989011;28;20061;-74
2022/04/11 05:21:25;;;;;;;6.17;3.93;;;1.70;99.90;;;;;;4963939;28;20050;-73
2022/04/11 05:23:50;;;;;;;6.80;4.30;;;1.70;99.90;;;;;;4994855;28;20056;-74
2022/04/11 05:26:18;;;;;;;7.60;4.30;;;1.70;99.90;;;;;;4971672;28;20049;-74
2022/04/11 05:28:45;;;;;;;7.43;4.50;;;1.80;99.90;;;;;;4976435;28;20038;-74
2022/04/11 05:31:11;;;;;;;7.40;4.20;;;1.70;99.90;;;;;;4966353;28;20189;-73
2022/04/11 05:33:37;;;;;;;7.00;4.43;;;1.90;99.90;;;;;;4969263;28;20046;-74
2022/04/11 05:36:14;;;;;;;7.37;4.17;;;1.80;99.90;;;;;;4990653;28;20050;-74
2022/04/11 05:38:40;;;;;;;7.90;4.30;;;1.90;99.90;;;;;;4970078;28;20573;-74
2022/04/11 05:41:06;;;;;;;5.53;4.20;;;1.90;99.90;;;;;;4984135;28;20045;-73
2022/04/11 05:43:35;;;;;;;6.47;4.20;;;1.90;99.90;;;;;;4995441;28;20753;-74
2022/04/11 05:46:02;;;;;;;5.47;4.00;;;1.90;99.90;;;;;;4982552;28;20049;-74
2022/04/11 05:48:30;;;;;;;6.70;3.80;;;1.90;99.90;;;;;;4960647;28;20165;-74
2022/04/11 05:50:59;;;;;;;5.60;4.10;;;2.00;99.90;;;;;;4988301;28;20109;-74
2022/04/11 05:53:26;;;;;;;5.60;3.80;;;2.00;99.90;;;;;;4997554;28;20053;-74
2022/04/11 05:55:52;;;;;;;5.83;4.13;;;2.00;99.90;;;;;;5000359;28;20057;-74
2022/04/11 05:58:18;;;;;;;5.93;4.40;;;2.00;99.90;;;;;;5005814;28;20457;-73
2022/04/11 06:00:43;;;;;;;6.80;4.40;;;2.10;99.90;;;;;;4986069;28;20042;-76
2022/04/11 06:03:09;;;;;;;6.47;4.17;;;2.00;99.90;;;;;;4997820;28;20550;-74
2022/04/11 06:05:40;;;;;;;7.13;4.37;;;2.10;99.90;;;;;;4995635;28;20055;-74
2022/04/11 06:08:05;;;;;;;6.07;4.15;;;2.20;99.90;;;;;;5013827;28;20452;-75
2022/04/11 06:10:31;;;;;;;6.10;4.30;;;2.20;99.90;;;;;;4979260;28;20038;-74
2022/04/11 06:13:00;;;;;;;6.07;3.70;;;2.30;99.90;;;;;;4990332;28;20562;-74
2022/04/11 06:15:26;;;;;;;5.23;3.20;;;2.30;99.90;;;;;;4996046;28;20037;-74
2022/04/11 06:17:52;;;;;;;5.33;3.00;;;2.30;99.90;;;;;;4988972;28;20053;-74
2022/04/11 06:20:18;;;;;;;5.53;3.10;;;2.40;99.90;;;;;;5005860;28;20142;-74
2022/04/11 06:22:45;;;;;;;5.37;3.60;;;2.40;99.90;;;;;;4980200;28;20446;-74
2022/04/11 06:25:11;;;;;;;5.57;3.70;;;2.50;99.90;;;;;;4994477;28;20927;-73
2022/04/11 06:27:37;;;;;;;5.43;3.40;;;2.60;99.90;;;;;;4996313;28;20051;-72
2022/04/11 06:30:04;;;;;;;5.73;3.50;;;2.60;99.90;;;;;;4994625;28;20042;-73
2022/04/11 06:32:34;;;;;;;5.80;3.50;;;2.70;99.90;;;;;;5019271;28;20077;-74
2022/04/11 06:35:01;;;;;;;7.05;4.50;;;2.70;99.90;;;;;;5011247;28;20571;-73
2022/04/11 06:37:27;;;;;;;5.83;4.30;;;2.80;99.90;;;;;;4998800;28;20136;-74
2022/04/11 06:39:55;;;;;;;6.83;4.17;;;2.90;99.90;;;;;;5007223;28;20211;-74
2022/04/11 06:42:21;;;;;;;6.77;4.37;;;3.00;99.90;;;;;;5011878;28;20388;-74
2022/04/11 06:44:47;;;;;;;6.03;4.10;;;3.10;99.90;;;;;;5002474;28;20051;-74
2022/04/11 06:47:13;;;;;;;6.50;3.83;;;3.20;99.90;;;;;;5007071;28;20136;-75
2022/04/11 06:49:39;;;;;;;7.17;4.20;;;3.30;99.90;;;;;;4978271;28;20458;-74
2022/04/11 06:52:06;;;;;;;5.73;4.30;;;3.40;99.90;;;;;;5004593;28;20057;-74
2022/04/11 06:54:32;;;;;;;8.30;4.73;;;3.50;99.90;;;;;;4987312;28;20369;-74
2022/04/11 06:56:58;;;;;;;8.33;4.47;;;3.60;99.90;;;;;;4993330;28;20398;-75
2022/04/11 06:59:24;;;;;;;7.37;4.20;;;3.70;99.90;;;;;;4991858;28;20268;-75
2022/04/11 07:01:53;;;;;;;8.17;4.53;;;3.70;99.90;;;;;;5007015;28;20419;-74
2022/04/11 07:04:20;;;;;;;7.20;4.60;;;3.80;99.90;;;;;;5008699;28;20164;-74
2022/04/11 07:06:45;;;;;;;7.17;4.43;;;3.90;99.90;;;;;;4973038;28;20088;-74
2022/04/11 07:09:11;;;;;;;7.03;4.50;;;4.00;99.90;;;;;;4965038;28;20053;-73
2022/04/11 07:11:37;;;;;;;9.70;5.20;;;4.00;99.90;;;;;;4957309;28;20053;-74
2022/04/11 07:14:05;;;;;;;9.27;5.47;;;4.10;99.90;;;;;;5020120;28;20041;-74
2022/04/11 07:16:31;;;;;;;6.93;4.20;;;4.20;99.90;;;;;;4986237;28;20052;-74
2022/04/11 07:18:56;;;;;;;6.70;4.27;;;4.20;99.90;;;;;;5004799;28;20053;-74
2022/04/11 07:21:22;;;;;;;7.13;4.40;;;4.30;99.90;;;;;;5011925;28;20603;-74
2022/04/11 07:23:48;;;;;;;8.30;4.80;;;4.40;99.90;;;;;;5003649;28;20053;-74
2022/04/11 07:26:14;;;;;;;7.87;4.80;;;4.50;99.90;;;;;;4986033;28;20049;-74
2022/04/11 07:28:40;;;;;;;7.40;4.37;;;4.60;99.90;;;;;;4982728;28;20484;-75
2022/04/11 07:31:07;;;;;;;8.10;4.63;;;4.70;99.90;;;;;;5005563;28;20060;-74
2022/04/11 07:33:33;;;;;;;8.30;4.80;;;4.70;99.90;;;;;;5009231;28;20482;-75
2022/04/11 07:35:59;;;;;;;9.10;4.77;;;4.80;99.90;;;;;;5022013;28;20049;-75
2022/04/11 07:38:25;;;;;;;7.63;4.47;;;4.90;99.90;;;;;;5002249;28;20060;-75
2022/04/11 07:40:50;;;;;;;6.33;4.50;;;4.90;99.90;;;;;;4981122;28;20459;-74
2022/04/11 07:43:16;;;;;;;7.43;5.20;;;5.00;99.90;;;;;;4964637;28;20045;-74
2022/04/11 07:45:43;;;;;;;7.80;4.97;;;5.10;99.90;;;;;;4984894;28;20045;-75
2022/04/11 07:48:09;;;;;;;7.07;4.80;;;5.20;99.90;;;;;;4985446;28;20047;-75
2022/04/11 07:50:35;;;;;;;9.03;4.50;;;5.20;99.90;;;;;;4967387;28;20041;-75
2022/04/11 07:53:01;;;;;;;7.23;4.97;;;5.30;99.90;;;;;;4989725;28;20080;-75
2022/04/11 07:55:28;;;;;;;7.77;5.50;;;5.40;99.90;;;;;;4987959;28;20731;-74
2022/04/11 07:57:54;;;;;;;11.23;5.37;;;5.50;99.90;;;;;;4991406;28;20443;-75
2022/04/11 08:00:21;;;;;;;9.40;5.53;;;5.60;99.90;;;;;;5017743;28;20053;-75
2022/04/11 08:02:55;;;;;;;10.27;6.10;;;5.70;99.90;;;;;;5006682;28;20033;-75
2022/04/11 08:05:22;;;;;;;12.87;6.73;;;5.80;99.90;;;;;;4997154;28;20057;-75
2022/04/11 08:07:49;;;;;;;9.13;5.75;;;5.90;99.90;;;;;;4993559;28;20054;-75
2022/04/11 08:10:16;;;;;;;9.57;5.55;;;6.00;99.90;;;;;;5017978;28;20052;-75
2022/04/11 08:12:56;;;;;;;8.97;5.27;;;6.10;99.90;;;;;;5001338;28;21287;-75
2022/04/11 08:15:23;;;;;;;;;;;6.20;99.90;;;;;;5002932;28;20045;-76
2022/04/11 08:17:49;;;;;;;7.60;5.25;;;6.40;99.90;;;;;;5006036;28;19951;-75
2022/04/11 08:20:15;;;;;;;7.93;5.05;;;6.50;99.90;;;;;;4994563;28;20038;-75
2022/04/11 08:22:41;;;;;;;7.70;5.00;;;6.60;99.90;;;;;;5005770;28;20348;-76
2022/04/11 08:25:08;;;;;;;6.78;5.00;;;6.70;99.90;;;;;;5002303;28;20124;-77
2022/04/11 08:27:35;;;;;;;9.30;5.32;;;6.80;99.90;;;;;;4998113;28;20507;-76
2022/04/11 08:30:02;;;;;;;12.25;6.18;;;7.00;99.90;;;;;;4986902;28;20694;-76
2022/04/11 08:32:40;;;;;;;9.20;5.93;;;7.10;99.90;;;;;;4985532;28;20041;-76
2022/04/11 08:35:08;;;;;;;8.98;5.18;;;7.30;99.90;;;;;;5004263;28;20045;-76
2022/04/11 08:37:40;;;;;;;8.40;5.10;;;7.40;99.90;;;;;;5010402;28;20156;-76
2022/04/11 08:40:08;;;;;;;8.60;5.32;;;7.60;99.90;;;;;;4996811;28;20060;-76
2022/04/11 08:42:34;;;;;;;6.78;5.15;;;7.70;99.90;;;;;;4999822;28;20442;-76
2022/04/11 08:45:00;;;;;;;8.10;4.75;;;7.80;99.90;;;;;;4996180;28;21047;-76
2022/04/11 08:47:26;;;;;;;8.88;5.00;;;7.90;99.90;;;;;;5004560;28;20389;-76
2022/04/11 08:49:55;;;;;;;8.25;5.15;;;8.00;99.90;;;;;;4989050;28;20296;-76
2022/04/11 08:52:21;;;;;;;8.15;4.70;;;8.10;99.90;;;;;;4986667;28;20053;-76
2022/04/11 08:54:48;;;;;;;7.68;4.50;;;8.20;99.90;;;;;;4986871;28;20037;-77
2022/04/11 08:57:13;;;;;;;7.28;4.45;;;8.40;99.90;;;;;;4984866;28;20034;-76
2022/04/11 08:59:39;;;;;;;9.15;5.90;;;8.60;99.90;;;;;;4987541;28;20045;-77
2022/04/11 09:02:09;;;;;;;8.75;4.82;;;8.80;99.90;;;;;;4997485;28;20633;-76
2022/04/11 09:04:51;;;;;;;9.73;4.60;;;9.20;99.90;;;;;;5011207;28;20717;-76
2022/04/11 09:07:17;;;;;;;8.48;4.50;;;9.40;99.90;;;;;;4993711;28;20037;-77
2022/04/11 09:09:43;;;;;;;6.13;4.20;;;9.60;99.90;;;;;;4998644;28;20218;-77
2022/04/11 09:12:15;;;;;;;9.50;4.50;;;9.80;99.90;;;;;;4985159;28;20472;-76
2022/04/11 09:14:42;;;;;;;6.75;4.15;;;10.00;99.90;;;;;;5012307;28;20106;-76
2022/04/11 09:17:11;;;;;;;7.95;3.75;;;10.20;99.90;;;;;;5003282;28;20045;-76
2022/04/11 09:19:38;;;;;;;8.88;4.00;;;10.40;99.90;;;;;;5008132;28;20069;-77
2022/04/11 09:22:05;;;;;;;6.90;3.80;;;10.60;99.90;;;;;;4969771;28;20485;-77
2022/04/11 09:24:31;;;;;;;6.60;3.55;;;10.80;99.90;;;;;;5005109;28;20041;-77
2022/04/11 09:27:00;;;;;;;6.45;3.22;;;10.90;99.90;;;;;;4992035;28;20076;-77
2022/04/11 09:29:30;;;;;;;6.43;2.63;;;10.90;99.90;;;;;;4996876;28;20067;-76
2022/04/11 09:32:05;;;;;;;6.05;2.88;;;11.10;97.50;;;;;;4997749;28;20036;-77
2022/04/11 09:34:31;;;;;;;6.18;2.72;;;11.20;95.20;;;;;;5002260;28;20555;-77
2022/04/11 09:37:00;;;;;;;6.03;2.58;;;11.30;95.50;;;;;;5019447;28;20491;-76
2022/04/11 09:39:31;;;;;;;5.63;3.08;;;11.40;94.10;;;;;;5015734;28;20567;-77
2022/04/11 09:41:57;;;;;;;5.57;2.80;;;11.50;94.00;;;;;;5005998;28;20492;-77
2022/04/11 09:44:30;;;;;;;6.22;2.50;;;11.60;92.00;;;;;;4977164;28;20049;-76
2022/04/11 09:47:00;;;;;;;6.05;2.50;;;11.70;90.30;;;;;;4988767;28;20047;-77
2022/04/11 09:49:27;;;;;;;4.80;2.90;;;11.90;90.70;;;;;;4980030;28;20341;-77
2022/04/11 09:52:11;;;;;;;5.90;2.83;;;12.00;90.20;;;;;;4990800;28;20072;-77
2022/04/11 09:54:49;;;;;;;4.13;2.03;;;12.20;90.90;;;;;;5001189;28;20053;-77
2022/04/11 09:57:17;;;;;;;6.28;2.03;;;12.30;89.30;;;;;;4988411;28;20400;-77
2022/04/11 09:59:44;;;;;;;5.40;2.53;;;12.40;87.30;;;;;;5005820;28;20054;-75
2022/04/11 10:02:10;;;;;;;4.55;2.55;;;12.50;85.70;;;;;;4985030;28;20052;-75
2022/04/11 10:04:38;;;;;;;6.00;2.33;;;12.50;83.10;;;;;;5009819;28;20045;-75
2022/04/11 10:07:09;;;;;;;6.35;2.50;;;12.50;78.90;;;;;;4991626;28;20119;-76
2022/04/11 10:09:35;;;;;;;;;;;12.50;74.80;;;;;;4989591;28;20124;-76
2022/04/11 10:12:05;;;;;;;6.78;2.70;;;12.50;73.80;;;;;;4994153;28;20312;-76
2022/04/11 10:14:31;;;;;;;8.38;2.67;;;12.60;77.00;;;;;;4969394;28;20133;-76
2022/04/11 10:17:00;;;;;;;5.88;3.05;;;12.70;77.30;;;;;;4986484;28;20393;-76
2022/04/11 10:19:31;;;;;;;6.50;3.08;;;12.80;75.50;;;;;;4988980;28;20136;-76
2022/04/11 10:22:05;;;;;;;7.15;2.83;;;13.00;76.30;;;;;;5005507;28;20619;-76
2022/04/11 10:24:47;;;;;;;7.55;2.72;;;13.10;74.30;;;;;;4987654;28;20491;-77
2022/04/11 10:27:25;;;;;;;7.72;3.38;;;13.20;73.30;;;;;;5013120;28;20507;-76
2022/04/11 10:29:56;;;;;;;5.60;2.90;;;13.30;70.50;;;;;;4990365;28;20048;-75
2022/04/11 10:32:24;;;;;;;4.82;2.90;;;13.40;68.70;;;;;;4990138;28;20085;-75
2022/04/11 10:34:54;;;;;;;7.22;3.53;;;13.50;68.60;;;;;;5004233;28;20053;-76
2022/04/11 10:37:27;;;;;;;4.55;2.90;;;13.50;65.40;;;;;;5004098;28;20481;-75
2022/04/11 10:40:13;;;;;;;7.13;3.25;;;13.50;65.30;;;;;;5010555;28;20175;-76
2022/04/11 10:42:58;;;;;;;7.78;3.72;;;13.50;66.70;;;;;;4985736;28;20045;-76
2022/04/11 10:45:51;;;;;;;7.88;4.80;;;13.50;65.80;;;;;;4991764;28;20046;-77
2022/04/11 10:48:18;;;;;;;7.85;5.75;;;13.60;64.90;;;;;;4979837;28;20050;-77
2022/04/11 10:50:44;;;;;;;10.65;5.65;;;13.80;64.20;;;;;;4972276;28;20044;-76
2022/04/11 10:53:24;;;;;;;9.55;6.00;;;13.90;62.50;;;;;;5015458;28;20052;-75
2022/04/11 10:56:10;;;;;;;9.30;6.60;;;13.80;60.80;;;;;;5008329;28;20095;-76
2022/04/11 10:58:50;;;;;;;9.48;6.85;;;13.70;58.80;;;;;;4991809;28;20048;-77
2022/04/11 11:01:49;;;;;;;10.45;6.82;;;13.70;60.70;;;;;;4998455;28;20065;-77
2022/04/11 11:04:20;;;;;;;8.88;6.50;;;13.80;60.00;;;;;;5003147;28;20053;-77
2022/04/11 11:06:46;;;;;;;10.13;6.78;;;13.90;59.70;;;;;;5007025;28;20087;-77
2022/04/11 11:09:18;;;;;;;8.05;6.13;;;14.00;60.70;;;;;;5007903;28;20123;-75
2022/04/11 11:11:46;;;;;;;8.80;6.13;;;14.10;60.20;;;;;;5012335;28;20506;-76
2022/04/11 11:14:41;;;;;;;9.68;6.30;;;14.10;61.70;;;;;;4993585;28;20060;-76
2022/04/11 11:17:07;;;;;;;9.40;7.07;;;14.10;61.40;;;;;;4986498;28;20569;-77
2022/04/11 11:20:08;;;;;;;9.52;6.68;;;14.10;61.30;;;;;;5004794;28;20582;-77
2022/04/11 11:22:55;;;;;;;9.70;6.90;;;14.10;61.70;;;;;;4994843;28;20132;-77
2022/04/11 11:25:21;;;;;;;9.25;6.38;;;14.30;62.10;;;;;;4990698;28;20439;-76
2022/04/11 11:27:49;;;;;;;10.13;7.25;;;14.50;60.40;;;;;;4963231;28;20412;-77
2022/04/11 11:30:15;;;;;;;10.38;6.70;;;14.40;60.40;;;;;;4965948;28;20046;-76
2022/04/11 11:32:42;;;;;;;9.38;7.00;;;14.40;59.30;;;;;;5004689;28;20084;-77
2022/04/11 11:35:09;;;;;;;9.70;7.55;;;14.40;59.60;;;;;;4988485;28;20132;-76
2022/04/11 11:37:35;;;;;;;9.68;6.97;;;14.30;58.50;;;;;;5011008;28;20049;-76
2022/04/11 11:40:03;;;;;;;10.48;7.25;;;14.30;60.20;;;;;;4996139;28;20049;-77
2022/04/11 11:42:35;;;;;;;10.10;7.15;;;14.30;61.00;;;;;;5006091;28;20591;-77
2022/04/11 11:45:02;;;;;;;12.07;7.18;;;14.50;59.30;;;;;;5002902;28;20163;-77
2022/04/11 11:47:29;;;;;;;9.85;6.95;;;14.50;58.50;;;;;;5004822;28;20478;-76
2022/04/11 11:50:07;;;;;;;12.07;6.93;;;14.50;59.60;;;;;;4991794;28;20045;-77
2022/04/11 11:52:33;;;;;;;10.38;6.68;;;14.60;56.90;;;;;;4996300;28;20037;-78
2022/04/11 11:55:00;;;;;;;12.60;6.80;;;14.40;58.00;;;;;;4989279;28;20038;-77
2022/04/11 11:57:30;;;;;;;9.25;5.72;;;14.40;58.80;;;;;;5014835;28;20057;-77
2022/04/11 11:59:59;;;;;;;9.38;7.15;;;14.50;57.70;;;;;;5006854;28;20049;-78
2022/04/11 12:05:18;;;;;;;9.13;7.30;;;14.70;58.30;;;;;;5000192;28;20132;-77
2022/04/11 12:07:44;;;;;;;9.38;7.13;;;14.90;58.40;;;;;;5000920;28;20041;-76
2022/04/11 12:10:11;;;;;;;8.65;6.18;;;14.90;59.80;;;;;;4987132;28;20124;-77
2022/04/11 12:12:37;;;;;;;8.00;5.97;;;14.90;57.20;;;;;;4986030;28;20344;-77
2022/04/11 12:15:05;;;;;;;12.05;7.18;;;14.80;58.60;;;;;;4986277;28;20044;-77
2022/04/11 12:17:37;;;;;;;7.03;6.30;;;14.80;59.30;;;;;;4992983;28;20307;-77
2022/04/11 12:20:18;;;;;;;8.73;7.10;;;14.80;58.60;;;;;;5001867;28;20083;-78
2022/04/11 12:23:10;;;;;;;10.63;6.93;;;14.90;58.60;;;;;;5018008;28;20048;-79
2022/04/11 12:25:42;;;;;;;8.32;5.95;;;15.00;57.30;;;;;;5012289;28;20467;-78
2022/04/11 12:28:15;;;;;;;10.23;7.00;;;15.00;56.30;;;;;;5007487;28;20040;-77
2022/04/11 12:30:46;;;;;;;10.13;7.50;;;15.00;57.00;;;;;;5004782;28;20053;-77
2022/04/11 12:33:36;;;;;;;11.73;6.63;;;15.00;57.10;;;;;;4985238;28;20504;-78
2022/04/11 12:36:07;;;;;;;9.02;6.78;;;14.80;57.10;;;;;;4992749;28;20057;-79
2022/04/11 12:38:46;;;;;;;8.55;6.82;;;14.90;56.00;;;;;;5004608;28;20076;-78
2022/04/11 12:41:35;;;;;;;9.18;6.90;;;15.00;55.20;;;;;;4988759;28;20049;-78
2022/04/11 12:44:34;;;;;;;11.40;8.45;;;14.90;54.70;;;;;;5006598;28;20049;-77
2022/04/11 12:47:00;;;;;;;10.82;6.90;;;14.90;55.40;;;;;;5010882;28;20041;-77
2022/04/11 12:49:48;;;;;;;10.57;8.02;;;15.00;57.60;;;;;;4995181;28;20495;-77
2022/04/11 12:52:16;;;;;;;9.60;8.55;;;15.00;58.20;;;;;;4994612;28;20053;-77
2022/04/11 12:54:50;;;;;;;11.32;8.40;;;15.10;59.40;;;;;;4990996;28;20446;-77
2022/04/11 12:57:21;;;;;;;10.65;7.95;;;15.10;57.90;;;;;;5003769;28;20049;-78
2022/04/11 12:59:47;;;;;;;10.93;8.27;;;15.00;58.30;;;;;;4992517;28;20053;-78
2022/04/11 13:02:21;;;;;;;9.93;7.55;;;15.10;58.50;;;;;;4993319;28;20522;-78